Terminal Aerodrome Forecast
Issued by NWS

Home | Current Version | Previous Version | Text Only | Print | Product List | Glossary On
Versions: 1 2 3 4 5 6 7 8 9 10 11 12 13 14 15 16 17 18 19 20 21 22 23 24 25 26 27
763
FTUS46 KMTR 252339
TAFSFO
TAF
KSFO 252339Z 2600/2706 26016KT P6SM FEW017 FEW200
     FM260300 26011KT P6SM SCT020 SCT150
     FM260500 25009KT P6SM BKN020
     FM261200 23012KT 5SM -RA BR OVC015
     FM261600 26016KT P6SM -SHRA OVC025
     FM262100 28017KT P6SM BKN050 PROB30 2621/2624 P6SM -RA BKN050=

USA.gov is the U.S. government's official web portal to all federal, state and local government web resources and services.